createdAt,value
2019-04-03T00:00:52.794Z,28.45
2019-04-03T00:03:21.167Z,29.70
2019-04-03T00:05:49.539Z,28.27
2019-04-03T00:08:17.905Z,27.77
2019-04-03T00:10:46.339Z,33.50
2019-04-03T00:13:14.708Z,30.37
2019-04-03T00:15:44.756Z,29.65
2019-04-03T00:18:15.787Z,35.80
2019-04-03T00:20:43.087Z,30.05
2019-04-03T00:23:11.457Z,32.55
2019-04-03T00:25:39.825Z,30.43
2019-04-03T00:28:08.203Z,28.42
2019-04-03T00:30:36.589Z,30.45
2019-04-03T00:33:04.955Z,24.37
2019-04-03T00:35:33.324Z,28.45
2019-04-03T00:38:01.679Z,26.73
2019-04-03T00:40:30.061Z,31.65
2019-04-03T00:42:58.416Z,26.95
2019-04-03T00:45:26.834Z,26.90
2019-04-03T00:47:55.760Z,28.00
2019-04-03T00:50:26.153Z,29.12
2019-04-03T00:52:57.138Z,31.15
2019-04-03T00:55:26.231Z,30.57
2019-04-03T00:57:54.779Z,34.67
2019-04-03T01:00:25.984Z,25.10
2019-04-03T01:02:54.468Z,37.10
2019-04-03T01:05:22.842Z,28.40
2019-04-03T01:07:51.196Z,27.20
2019-04-03T01:10:19.576Z,32.25
2019-04-03T01:12:47.928Z,26.52
2019-04-03T01:15:16.304Z,23.87
2019-04-03T01:17:44.683Z,27.45
2019-04-03T01:20:13.036Z,30.23
2019-04-03T01:22:41.578Z,27.13
2019-04-03T01:25:09.973Z,28.55
2019-04-03T01:27:41.020Z,26.40
2019-04-03T01:30:08.357Z,28.30
2019-04-03T01:32:36.901Z,29.00
2019-04-03T01:35:05.856Z,26.70
2019-04-03T01:37:34.417Z,27.80
2019-04-03T01:40:03.340Z,26.20
2019-04-03T01:42:31.707Z,28.57
2019-04-03T01:45:00.057Z,29.92
2019-04-03T01:47:28.438Z,28.57
2019-04-03T01:49:58.297Z,22.65
2019-04-03T01:52:26.933Z,25.65
2019-04-03T01:54:55.548Z,28.70
2019-04-03T01:57:24.012Z,25.55
2019-04-03T01:59:52.368Z,23.92
2019-04-03T02:02:21.036Z,29.35
2019-04-03T02:04:49.419Z,25.68
2019-04-03T02:07:17.781Z,23.02
2019-04-03T02:09:46.595Z,31.30
2019-04-03T02:12:15.615Z,26.55
2019-04-03T02:14:43.974Z,29.42
2019-04-03T02:17:12.508Z,25.48
2019-04-03T02:19:41.016Z,23.67
2019-04-03T02:22:09.396Z,23.77
2019-04-03T02:24:38.195Z,26.48
2019-04-03T02:27:06.560Z,25.85
2019-04-03T02:29:34.918Z,24.52
2019-04-03T02:32:03.291Z,26.55
2019-04-03T02:34:34.702Z,28.35
2019-04-03T02:37:01.696Z,24.32
2019-04-03T02:39:30.045Z,22.32
2019-04-03T02:41:58.525Z,25.95
2019-04-03T02:44:26.923Z,21.60
2019-04-03T02:46:55.400Z,21.12
2019-04-03T02:49:25.287Z,21.85
2019-04-03T02:51:53.863Z,24.15
2019-04-03T02:54:32.710Z,25.50
2019-04-03T02:57:00.447Z,19.87
2019-04-03T02:59:28.793Z,19.00
2019-04-03T03:01:57.118Z,21.50
2019-04-03T03:04:26.246Z,26.57
2019-04-03T03:06:54.902Z,22.15
2019-04-03T03:09:23.282Z,20.05
2019-04-03T03:11:55.216Z,21.48
2019-04-03T03:14:21.729Z,30.62
2019-04-03T03:16:50.801Z,26.48
2019-04-03T03:19:19.649Z,23.75
2019-04-03T03:21:48.021Z,26.90
2019-04-03T03:24:16.522Z,19.67
2019-04-03T03:26:44.957Z,24.37
2019-04-03T03:29:17.744Z,17.70
2019-04-03T03:32:05.754Z,16.32
2019-04-03T03:34:13.484Z,20.35
2019-04-03T03:36:42.484Z,20.40
2019-04-03T03:39:11.858Z,22.75
2019-04-03T03:41:40.542Z,19.90
2019-04-03T03:44:10.484Z,21.02
2019-04-03T03:46:38.954Z,25.15
2019-04-03T03:49:07.376Z,20.55
2019-04-03T03:51:36.000Z,20.82
2019-04-03T03:54:04.605Z,16.07
2019-04-03T03:56:33.055Z,15.25
2019-04-03T03:59:01.507Z,19.15
2019-04-03T04:01:31.462Z,16.17
2019-04-03T04:04:00.062Z,18.55
2019-04-03T04:06:30.232Z,20.88
2019-04-03T04:08:58.674Z,21.12
2019-04-03T04:11:28.130Z,18.15
2019-04-03T04:13:57.109Z,19.67
2019-04-03T04:16:25.462Z,19.65
2019-04-03T04:18:57.002Z,16.73
2019-04-03T04:21:23.841Z,17.48
2019-04-03T04:23:53.173Z,19.15
2019-04-03T04:26:22.270Z,18.57
2019-04-03T04:28:50.631Z,18.87
2019-04-03T04:31:18.987Z,17.67
2019-04-03T04:33:48.090Z,19.98
2019-04-03T04:36:17.098Z,25.05
2019-04-03T04:38:45.587Z,21.85
2019-04-03T04:41:13.949Z,19.48
2019-04-03T04:43:42.320Z,18.57
2019-04-03T04:46:13.115Z,24.02
2019-04-03T04:48:40.924Z,16.90
2019-04-03T04:51:09.489Z,20.60
2019-04-03T04:53:38.047Z,21.87
2019-04-03T04:56:07.361Z,18.37
2019-04-03T04:58:36.057Z,17.90
2019-04-03T05:01:04.590Z,25.68
2019-04-03T05:03:33.037Z,24.32
2019-04-03T05:06:01.431Z,29.42
2019-04-03T05:08:32.198Z,25.80
2019-04-03T05:10:59.812Z,23.35
2019-04-03T05:13:28.185Z,39.95
2019-04-03T05:15:56.543Z,18.62
2019-04-03T05:18:25.573Z,17.25
2019-04-03T05:20:55.410Z,17.90
2019-04-03T05:23:23.905Z,20.10
2019-04-03T05:25:53.941Z,16.52
2019-04-03T05:28:24.740Z,16.10
2019-04-03T05:30:52.326Z,18.07
2019-04-03T05:33:20.692Z,23.50
2019-04-03T05:35:49.056Z,19.02
2019-04-03T05:38:17.821Z,26.40
2019-04-03T05:40:46.173Z,25.80
2019-04-03T05:43:14.536Z,21.62
2019-04-03T05:45:42.914Z,25.12
2019-04-03T05:48:13.371Z,19.30
2019-04-03T05:50:41.289Z,19.48
2019-04-03T05:53:09.663Z,20.23
2019-04-03T05:55:40.525Z,25.00
2019-04-03T05:58:08.029Z,22.25
2019-04-03T06:00:38.149Z,24.98
2019-04-03T06:03:06.440Z,22.62
2019-04-03T06:05:34.823Z,22.65
2019-04-03T06:08:03.193Z,19.87
2019-04-03T06:10:32.456Z,24.63
2019-04-03T06:13:01.584Z,20.97
2019-04-03T06:15:30.018Z,35.17
2019-04-03T06:17:58.464Z,28.15
2019-04-03T06:20:26.775Z,30.68
2019-04-03T06:22:55.262Z,22.55
2019-04-03T06:25:23.996Z,25.97
2019-04-03T06:27:52.628Z,28.12
2019-04-03T06:30:21.158Z,25.17
2019-04-03T06:32:50.062Z,24.25
2019-04-03T06:35:18.500Z,20.57
2019-04-03T06:37:47.032Z,22.48
2019-04-03T06:40:16.445Z,30.27
2019-04-03T06:42:45.606Z,31.10
2019-04-03T06:45:15.733Z,26.33
2019-04-03T06:47:44.111Z,19.57
2019-04-03T06:50:13.499Z,15.83
2019-04-03T06:52:42.385Z,23.73
2019-04-03T06:55:10.744Z,20.45
2019-04-03T06:57:39.833Z,21.68
2019-04-03T07:00:08.391Z,20.15
2019-04-03T07:02:36.838Z,22.58
2019-04-03T07:05:05.904Z,20.50
2019-04-03T07:07:35.518Z,23.30
2019-04-03T07:10:08.883Z,21.30
2019-04-03T07:12:36.306Z,21.10
2019-04-03T07:15:06.583Z,22.25
2019-04-03T07:17:34.893Z,23.87
2019-04-03T07:20:13.751Z,26.25
2019-04-03T07:22:34.237Z,19.17
2019-04-03T07:25:03.550Z,18.55
2019-04-03T07:27:32.369Z,19.12
2019-04-03T07:30:00.773Z,17.50
2019-04-03T07:32:29.148Z,20.60
2019-04-03T07:34:57.731Z,17.15
2019-04-03T07:37:26.292Z,17.77
2019-04-03T07:39:54.794Z,18.12
2019-04-03T07:42:24.568Z,18.50
2019-04-03T07:44:53.168Z,18.05
2019-04-03T07:47:21.591Z,17.35
2019-04-03T07:49:49.912Z,17.57
2019-04-03T07:52:18.557Z,20.12
2019-04-03T07:54:47.057Z,15.88
2019-04-03T07:57:16.405Z,17.95
2019-04-03T07:59:45.305Z,19.57
2019-04-03T08:02:13.681Z,25.45
2019-04-03T08:04:42.076Z,47.05
2019-04-03T08:07:10.428Z,20.15
2019-04-03T08:09:38.803Z,17.23
2019-04-03T08:12:07.251Z,20.85
2019-04-03T08:14:35.606Z,16.70
2019-04-03T08:17:03.999Z,43.48
2019-04-03T08:19:32.347Z,71.07
2019-04-03T08:22:01.881Z,13.95
2019-04-03T08:24:30.496Z,21.95
2019-04-03T08:26:59.007Z,12.07
2019-04-03T08:29:28.118Z,11.28
2019-04-03T08:31:56.496Z,11.00
2019-04-03T08:34:25.129Z,10.48
2019-04-03T08:36:53.646Z,10.10
2019-04-03T08:39:22.023Z,10.53
2019-04-03T08:41:50.376Z,11.08
2019-04-03T08:44:18.746Z,11.88
2019-04-03T08:46:47.209Z,9.83
2019-04-03T08:49:15.891Z,11.48
2019-04-03T08:51:44.382Z,11.50
2019-04-03T08:54:12.742Z,12.13
2019-04-03T08:56:41.134Z,11.28
2019-04-03T08:59:09.497Z,10.80
2019-04-03T09:01:39.360Z,11.65
2019-04-03T09:04:08.010Z,11.25
2019-04-03T09:06:37.404Z,11.55
2019-04-03T09:09:08.857Z,10.15
2019-04-03T09:11:37.246Z,12.70
2019-04-03T09:14:05.807Z,10.28
2019-04-03T09:16:34.516Z,13.45
2019-04-03T09:19:02.915Z,10.15
2019-04-03T09:21:31.756Z,10.43
2019-04-03T09:24:00.188Z,16.57
2019-04-03T09:26:28.884Z,14.73
2019-04-03T09:28:57.319Z,22.70
2019-04-03T09:31:25.706Z,20.48
2019-04-03T09:33:56.262Z,15.83
2019-04-03T09:36:24.092Z,19.57
2019-04-03T09:38:52.451Z,55.43
2019-04-03T09:41:21.105Z,18.32
2019-04-03T09:43:49.470Z,19.60
2019-04-03T09:46:17.866Z,19.12
2019-04-03T09:48:46.225Z,17.20
2019-04-03T09:51:17.576Z,17.27
2019-04-03T09:53:44.631Z,16.12
2019-04-03T09:56:13.156Z,18.40
2019-04-03T09:58:41.473Z,18.35
2019-04-03T10:01:09.838Z,19.40
2019-04-03T10:03:38.564Z,23.57
2019-04-03T10:06:06.920Z,16.70
2019-04-03T10:08:35.289Z,19.20
2019-04-03T10:11:03.663Z,19.37
2019-04-03T10:13:32.025Z,17.05
2019-04-03T10:16:03.152Z,19.87
2019-04-03T10:18:30.494Z,18.00
2019-04-03T10:20:58.881Z,21.45
2019-04-03T10:23:29.063Z,47.10
2019-04-03T10:25:57.260Z,18.37
2019-04-03T10:28:25.619Z,32.55
2019-04-03T10:30:54.471Z,33.65
2019-04-03T10:33:22.875Z,18.27
2019-04-03T10:35:51.531Z,19.62
2019-04-03T10:38:20.107Z,14.43
2019-04-03T10:40:48.708Z,19.80
2019-04-03T10:43:17.267Z,16.20
2019-04-03T10:45:46.111Z,21.82
2019-04-03T10:48:14.476Z,15.80
2019-04-03T10:50:42.856Z,14.35
2019-04-03T10:53:11.207Z,20.05
2019-04-03T10:55:39.571Z,18.80
2019-04-03T10:58:08.531Z,15.35
2019-04-03T11:00:37.619Z,14.13
2019-04-03T11:03:06.241Z,19.23
2019-04-03T11:05:34.763Z,13.72
2019-04-03T11:08:03.119Z,10.88
2019-04-03T11:10:31.500Z,9.15
2019-04-03T11:13:02.283Z,9.93
2019-04-03T11:15:29.872Z,11.40
2019-04-03T11:17:58.309Z,12.35
2019-04-03T11:20:26.604Z,9.45
2019-04-03T11:23:06.065Z,11.18
2019-04-03T11:25:25.368Z,8.28
2019-04-03T11:27:54.038Z,11.70
2019-04-03T11:30:24.689Z,8.35
2019-04-03T11:32:52.838Z,9.30
2019-04-03T11:35:22.338Z,10.35
2019-04-03T11:37:51.004Z,9.33
2019-04-03T11:40:19.441Z,7.80
2019-04-03T11:42:47.801Z,8.03
2019-04-03T11:45:16.247Z,8.35
2019-04-03T11:47:45.846Z,10.45
2019-04-03T11:50:14.848Z,8.08
2019-04-03T11:52:43.276Z,8.15
2019-04-03T11:55:11.722Z,7.12
2019-04-03T11:57:40.063Z,9.53
2019-04-03T12:00:11.230Z,8.70
2019-04-03T12:02:40.356Z,6.87
2019-04-03T12:05:09.834Z,7.70
2019-04-03T12:07:38.339Z,11.68
2019-04-03T12:10:06.696Z,10.28
2019-04-03T12:12:35.064Z,6.83
2019-04-03T12:15:05.421Z,10.53
2019-04-03T12:17:33.837Z,9.48
2019-04-03T12:20:02.329Z,6.70
2019-04-03T12:22:30.735Z,6.35
2019-04-03T12:24:59.112Z,7.37
2019-04-03T12:27:27.460Z,8.38
2019-04-03T12:29:56.159Z,7.12
2019-04-03T12:32:36.546Z,5.90
2019-04-03T12:34:54.656Z,6.03
2019-04-03T12:37:25.034Z,6.78
2019-04-03T12:39:53.036Z,6.03
2019-04-03T12:42:21.404Z,8.53
2019-04-03T12:44:49.899Z,6.03
2019-04-03T12:47:18.275Z,6.05
2019-04-03T12:49:46.964Z,8.75
2019-04-03T12:52:15.387Z,7.47
2019-04-03T12:54:43.712Z,6.78
2019-04-03T12:57:12.096Z,6.55
2019-04-03T12:59:40.826Z,16.73
2019-04-03T13:02:09.420Z,6.05
2019-04-03T13:04:37.895Z,6.58
2019-04-03T13:07:06.649Z,4.58
2019-04-03T13:09:37.703Z,5.95
2019-04-03T13:12:05.687Z,4.47
2019-04-03T13:14:34.061Z,5.45
2019-04-03T13:17:02.668Z,4.42
2019-04-03T13:19:31.096Z,5.28
2019-04-03T13:21:59.464Z,5.90
2019-04-03T13:24:28.139Z,6.87
2019-04-03T13:26:58.093Z,6.15
2019-04-03T13:29:26.591Z,6.97
2019-04-03T13:31:54.995Z,6.87
2019-04-03T13:34:23.319Z,7.58
2019-04-03T13:36:52.287Z,9.15
2019-04-03T13:39:20.875Z,6.87
2019-04-03T13:41:49.313Z,5.67
2019-04-03T13:44:17.685Z,5.05
2019-04-03T13:46:46.287Z,7.30
2019-04-03T13:49:17.120Z,6.20
2019-04-03T13:51:45.273Z,6.95
2019-04-03T13:54:13.727Z,7.47
2019-04-03T13:56:43.136Z,8.40
2019-04-03T13:59:11.984Z,5.87
2019-04-03T14:01:41.193Z,7.95
2019-04-03T14:04:10.547Z,6.42
2019-04-03T14:06:39.379Z,4.65
2019-04-03T14:09:07.873Z,4.45
2019-04-03T14:11:36.518Z,4.37
2019-04-03T14:14:05.477Z,5.10
2019-04-03T14:16:35.423Z,4.35
2019-04-03T14:19:04.031Z,10.95
2019-04-03T14:21:34.965Z,8.78
2019-04-03T14:24:02.421Z,5.72
2019-04-03T14:26:30.816Z,6.90
2019-04-03T14:28:59.139Z,6.28
2019-04-03T14:31:34.294Z,4.78
2019-04-03T14:33:58.446Z,3.30
2019-04-03T14:36:27.932Z,5.47
2019-04-03T14:38:56.389Z,9.05
2019-04-03T14:41:25.153Z,5.67
2019-04-03T14:43:53.615Z,3.85
2019-04-03T14:46:21.971Z,6.90
2019-04-03T14:48:50.517Z,11.35
2019-04-03T14:51:19.303Z,6.72
2019-04-03T14:53:47.760Z,6.20
2019-04-03T14:56:16.615Z,8.20
2019-04-03T14:58:44.990Z,9.10
2019-04-03T15:01:13.427Z,2.87
2019-04-03T15:03:41.715Z,5.60
2019-04-03T15:06:10.390Z,2.72
2019-04-03T15:08:38.750Z,3.00
2019-04-03T15:11:07.146Z,3.95
2019-04-03T15:13:35.516Z,3.37
2019-04-03T15:16:04.110Z,4.17
2019-04-03T15:18:32.498Z,7.03
2019-04-03T15:21:01.022Z,5.20
2019-04-03T15:23:29.418Z,5.53
2019-04-03T15:25:57.797Z,3.70
2019-04-03T15:28:27.947Z,7.35
2019-04-03T15:30:56.161Z,7.28
2019-04-03T15:33:25.025Z,4.35
2019-04-03T15:35:53.497Z,3.72
2019-04-03T15:38:22.057Z,2.87
2019-04-03T15:40:50.455Z,3.87
2019-04-03T15:43:19.077Z,4.58
2019-04-03T15:45:47.702Z,3.77
2019-04-03T15:48:16.160Z,4.15
2019-04-03T15:50:45.398Z,3.87
2019-04-03T15:53:13.859Z,4.25
2019-04-03T15:55:42.499Z,4.17
2019-04-03T15:58:10.996Z,3.98
2019-04-03T16:00:42.073Z,3.22
2019-04-03T16:03:09.458Z,2.52
2019-04-03T16:05:37.835Z,5.15
2019-04-03T16:08:06.269Z,3.00
2019-04-03T16:10:35.105Z,4.60
2019-04-03T16:13:03.463Z,3.35
2019-04-03T16:15:32.143Z,5.62
2019-04-03T16:18:00.500Z,4.55
2019-04-03T16:20:28.925Z,4.83
2019-04-03T16:22:57.239Z,3.15
2019-04-03T16:25:25.597Z,6.83
2019-04-03T16:27:54.604Z,2.72
2019-04-03T16:30:23.096Z,4.85
2019-04-03T16:32:51.944Z,6.37
2019-04-03T16:35:20.548Z,7.12
2019-04-03T16:37:50.581Z,6.08
2019-04-03T16:40:19.158Z,3.95
2019-04-03T16:42:48.296Z,4.35
2019-04-03T16:45:17.581Z,4.67
2019-04-03T16:47:45.935Z,6.78
2019-04-03T16:50:15.078Z,7.05
2019-04-03T16:52:43.623Z,5.47
2019-04-03T16:55:11.995Z,9.28
2019-04-03T16:57:40.441Z,6.72
2019-04-03T17:00:10.092Z,3.75
2019-04-03T17:02:38.812Z,7.80
2019-04-03T17:05:10.511Z,4.40
2019-04-03T17:07:38.350Z,5.90
2019-04-03T17:10:10.037Z,4.25
2019-04-03T17:12:38.727Z,5.33
2019-04-03T17:15:08.428Z,5.28
2019-04-03T17:17:36.814Z,5.62
2019-04-03T17:20:07.000Z,4.00
2019-04-03T17:22:37.206Z,4.30
2019-04-03T17:25:09.356Z,7.28
2019-04-03T17:27:37.822Z,7.42
2019-04-03T17:30:07.972Z,52.50
2019-04-03T17:32:36.462Z,10.70
2019-04-03T17:35:07.855Z,9.90
2019-04-03T17:37:36.837Z,5.67
2019-04-03T17:40:10.295Z,10.55
2019-04-03T17:42:39.338Z,4.78
2019-04-03T17:45:08.771Z,5.05
2019-04-03T17:47:37.137Z,5.58
2019-04-03T17:50:07.042Z,7.70
2019-04-03T17:52:36.505Z,10.05
2019-04-03T17:55:10.833Z,5.42
2019-04-03T17:57:39.473Z,4.65
2019-04-03T18:00:13.640Z,5.55
2019-04-03T18:02:42.000Z,6.12
2019-04-03T18:05:11.993Z,13.20
2019-04-03T18:07:40.352Z,6.92
2019-04-03T18:10:12.463Z,7.12
2019-04-03T18:12:38.840Z,6.05
2019-04-03T18:15:08.856Z,7.75
2019-04-03T18:17:37.217Z,6.50
2019-04-03T18:20:06.535Z,5.22
2019-04-03T18:22:34.903Z,4.70
2019-04-03T18:25:03.386Z,8.45
2019-04-03T18:27:33.234Z,5.40
2019-04-03T18:30:01.749Z,8.30
2019-04-03T18:32:30.185Z,9.53
2019-04-03T18:34:58.534Z,4.90
2019-04-03T18:37:26.909Z,7.03
2019-04-03T18:39:55.251Z,5.20
2019-04-03T18:42:23.611Z,6.33
2019-04-03T18:44:51.984Z,6.95
2019-04-03T18:47:20.336Z,5.70
2019-04-03T18:49:48.704Z,6.00
2019-04-03T18:52:17.049Z,7.05
2019-04-03T18:54:45.853Z,7.25
2019-04-03T18:57:15.000Z,6.95
2019-04-03T18:59:44.200Z,7.87
2019-04-03T19:02:12.636Z,6.00
2019-04-03T19:04:41.000Z,5.35
2019-04-03T19:07:09.377Z,5.58
2019-04-03T19:09:37.728Z,6.35
2019-04-03T19:12:08.667Z,5.40
2019-04-03T19:14:36.117Z,7.17
2019-04-03T19:17:04.467Z,5.78
2019-04-03T19:19:32.840Z,9.40
2019-04-03T19:22:01.195Z,10.85
2019-04-03T19:24:29.570Z,9.18
2019-04-03T19:26:57.919Z,10.23
2019-04-03T19:29:26.228Z,9.18
2019-04-03T19:31:54.584Z,6.12
2019-04-03T19:34:22.969Z,7.22
2019-04-03T19:36:51.309Z,6.62
2019-04-03T19:39:19.655Z,5.15
2019-04-03T19:41:48.021Z,5.33
2019-04-03T19:44:18.074Z,9.10
2019-04-03T19:46:46.391Z,5.45
2019-04-03T19:49:14.744Z,7.47
2019-04-03T19:51:43.110Z,5.03
2019-04-03T19:54:11.493Z,8.50
2019-04-03T19:56:39.857Z,7.35
2019-04-03T19:59:08.212Z,6.85
2019-04-03T20:01:38.669Z,5.95
2019-04-03T20:04:06.616Z,6.90
2019-04-03T20:06:34.967Z,5.45
2019-04-03T20:09:05.480Z,6.58
2019-04-03T20:11:34.172Z,7.45
2019-04-03T20:14:03.840Z,7.25
2019-04-03T20:16:32.201Z,6.00
2019-04-03T20:19:00.573Z,12.78
2019-04-03T20:21:28.944Z,12.63
2019-04-03T20:23:57.293Z,10.30
2019-04-03T20:26:25.680Z,8.65
2019-04-03T20:28:56.783Z,6.85
2019-04-03T20:31:24.048Z,9.83
2019-04-03T20:33:52.400Z,7.55
2019-04-03T20:36:21.130Z,7.90
2019-04-03T20:38:49.473Z,6.60
2019-04-03T20:41:18.707Z,4.62
2019-04-03T20:43:47.329Z,6.37
2019-04-03T20:46:15.812Z,5.87
2019-04-03T20:48:44.180Z,7.97
2019-04-03T20:51:12.538Z,6.12
2019-04-03T20:53:40.902Z,6.22
2019-04-03T20:56:09.252Z,5.53
2019-04-03T20:58:39.973Z,5.60
2019-04-03T21:01:07.643Z,6.30
2019-04-03T21:03:36.019Z,7.30
2019-04-03T21:06:04.384Z,6.53
2019-04-03T21:08:32.802Z,5.25
2019-04-03T21:11:02.371Z,7.35
2019-04-03T21:13:31.264Z,8.23
2019-04-03T21:15:59.641Z,7.42
2019-04-03T21:18:27.980Z,6.97
2019-04-03T21:20:56.383Z,7.15
2019-04-03T21:23:24.706Z,6.17
2019-04-03T21:25:53.052Z,9.05
2019-04-03T21:28:21.424Z,8.38
2019-04-03T21:30:49.788Z,8.58
2019-04-03T21:33:18.159Z,11.22
2019-04-03T21:35:46.512Z,5.80
2019-04-03T21:38:14.880Z,8.43
2019-04-03T21:40:43.229Z,6.95
2019-04-03T21:43:11.601Z,8.58
2019-04-03T21:45:39.951Z,6.90
2019-04-03T21:48:08.310Z,8.38
2019-04-03T21:50:36.676Z,9.28
2019-04-03T21:53:05.016Z,7.60
2019-04-03T21:55:34.700Z,10.25
2019-04-03T21:58:03.339Z,6.67
2019-04-03T22:00:58.897Z,7.85
2019-04-03T22:03:27.244Z,9.55
2019-04-03T22:05:56.189Z,7.83
2019-04-03T22:08:25.076Z,6.95
2019-04-03T22:10:53.447Z,10.68
2019-04-03T22:13:22.156Z,8.45
2019-04-03T22:15:50.518Z,7.83
2019-04-03T22:18:18.868Z,8.08
2019-04-03T22:20:47.240Z,12.25
2019-04-03T22:23:15.594Z,9.13
2019-04-03T22:25:44.018Z,9.28
2019-04-03T22:28:13.449Z,7.70
2019-04-03T22:30:42.445Z,7.65
2019-04-03T22:33:10.823Z,6.90
2019-04-03T22:35:39.164Z,7.08
2019-04-03T22:38:07.524Z,9.25
2019-04-03T22:40:36.164Z,9.70
2019-04-03T22:43:04.524Z,10.63
2019-04-03T22:45:32.883Z,8.18
2019-04-03T22:48:01.252Z,9.88
2019-04-03T22:50:29.612Z,10.25
2019-04-03T22:52:57.980Z,12.15
2019-04-03T22:55:26.336Z,8.55
2019-04-03T22:57:54.704Z,10.08
2019-04-03T23:00:25.496Z,9.85
2019-04-03T23:02:53.141Z,9.85
2019-04-03T23:05:21.509Z,9.80
2019-04-03T23:07:51.785Z,13.72
2019-04-03T23:10:19.947Z,11.35
2019-04-03T23:12:48.316Z,9.80
2019-04-03T23:15:16.685Z,11.90
2019-04-03T23:17:45.438Z,9.75
2019-04-03T23:20:13.871Z,10.32
2019-04-03T23:22:42.240Z,11.55
2019-04-03T23:25:10.595Z,12.70
2019-04-03T23:27:38.967Z,9.98
2019-04-03T23:30:10.070Z,10.38
2019-04-03T23:32:37.344Z,9.50
2019-04-03T23:35:06.231Z,11.03
2019-04-03T23:37:34.588Z,11.22
2019-04-03T23:40:02.957Z,10.32
2019-04-03T23:42:31.317Z,8.90
2019-04-03T23:44:59.708Z,9.35
2019-04-03T23:47:28.059Z,11.00
2019-04-03T23:49:56.430Z,9.90
2019-04-03T23:52:24.790Z,10.25
2019-04-03T23:54:53.159Z,12.93
2019-04-03T23:57:21.535Z,11.43
2019-04-03T23:59:49.887Z,11.80
